Chapra, India

1:40 PM IST on August 03, 2015 (GMT +0530)
Patna | | Change Station
CLOSE
Current Station
Airport
Location: Patna,
Elevation: 197 ft
Nearby Weather Stations

Elev 197 ft 25.59 °N, 85.09 °E | Updated 20 minutes ago

Haze
Haze
90 °F
Feels Like 102 °F
N
12
Wind Variable Wind from East
Gusts 23 mph

Today
High -- | Low -- °F
--% Chance of Precip.
Yesterday
High -- | Low -- °F
Precip. -- in
5:18 AM 6:36 PM
Waning Gibbous, 88% visible
Pressure 29.56 in
Visibility 2.5 miles
Clouds Scattered Clouds 1800 ft
Mostly Cloudy 10000 ft
Heat Index 102 °F
Dew Point 77 °F
Humidity 66%
Rainfall 0.00 in
Snow Depth Not available.
UV 9 out of 12
Pollen Not available.
Air Quality Not available.
Flu Activity Not available.
METAR VEPT 030750Z 10010G20KT 4000 HZ SCT018 BKN100 32/25 Q1001 NOSIG

More Conditions Fewer Conditions

Pressure 29.56 in
Visibility 2.5 miles
Clouds Scattered Clouds 1800 ft
Mostly Cloudy 10000 ft
Heat Index 102 °F
Dew Point 77 °F
Humidity 66%
Rainfall 0.00 in
Snow Depth Not available.
UV 9 out of 12
Pollen Not available.
Air Quality Not available.
Flu Activity Not available.
METAR VEPT 030750Z 10010G20KT 4000 HZ SCT018 BKN100 32/25 Q1001 NOSIG

More Conditions Fewer Conditions

10-Day Weather Forecast

×

Almanac

Astronomy

Aug. 03, 2015 Rise Set
Actual Time
Civil Twilight
Nautical Twilight
Astronomical Twilight
Moon
Length of Visible Light
Length of Day
Tomorrow will be .
, % of the Moon is Illuminated

Today's Extremes

Country Highs Country Lows

Community

WunderPhotos

Upload Photos

1,843,592 photos uploaded!

WunderBlogs® & News

Nearby

Air Quality

  Air Quality AQ Index Pollutant
Not available.

Snow Depth

Station Depth Elevation

Earthquake Activity

City Distance Mag. Time & Date
Minimum magnitude displayed is 2.5.

Coastal Water Temperatures

Place Temperature

Stations

Nearby Weather Stations

Station Location Temp. Windchill Dew Point Humidity Wind Precip. Elev Updated Type